createdAt,value
2023-04-27T00:01:57.826Z,7.20
2023-04-27T00:04:25.600Z,7.10
2023-04-27T00:06:52.625Z,7.10
2023-04-27T00:09:19.591Z,7.10
2023-04-27T00:11:46.442Z,7.00
2023-04-27T00:14:13.324Z,6.90
2023-04-27T00:16:40.183Z,6.90
2023-04-27T00:19:08.903Z,7.10
2023-04-27T00:21:35.928Z,6.80
2023-04-27T00:24:02.883Z,6.80
2023-04-27T00:26:29.764Z,6.80
2023-04-27T00:28:57.341Z,6.80
2023-04-27T00:31:24.973Z,6.80
2023-04-27T00:33:51.822Z,6.80
2023-04-27T00:36:18.695Z,7.00
2023-04-27T00:38:45.637Z,6.70
2023-04-27T00:41:12.373Z,6.70
2023-04-27T00:43:43.732Z,6.70
2023-04-27T00:46:13.163Z,6.70
2023-04-27T00:48:41.385Z,6.70
2023-04-27T00:51:08.493Z,6.80
2023-04-27T00:53:36.774Z,6.60
2023-04-27T00:56:05.166Z,6.60
2023-04-27T00:58:32.028Z,6.60
2023-04-27T01:01:00.314Z,6.70
2023-04-27T01:03:27.802Z,6.60
2023-04-27T01:05:56.634Z,6.60
2023-04-27T01:08:24.204Z,6.60
2023-04-27T01:10:51.252Z,6.60
2023-04-27T01:13:18.279Z,6.50
2023-04-27T01:15:45.134Z,6.40
2023-04-27T01:18:12.583Z,6.40
2023-04-27T01:20:39.603Z,6.30
2023-04-27T01:23:14.807Z,6.30
2023-04-27T01:25:43.148Z,6.30
2023-04-27T01:28:10.187Z,6.20
2023-04-27T01:30:37.606Z,6.20
2023-04-27T01:33:04.438Z,6.20
2023-04-27T01:35:31.671Z,6.20
2023-04-27T01:38:00.196Z,6.30
2023-04-27T01:40:27.150Z,6.20
2023-04-27T01:42:54.019Z,6.20
2023-04-27T01:45:21.003Z,6.20
2023-04-27T01:47:50.469Z,6.20
2023-04-27T01:50:20.424Z,6.10
2023-04-27T01:52:47.436Z,6.10
2023-04-27T01:55:14.376Z,6.10
2023-04-27T01:57:41.769Z,6.10
2023-04-27T02:00:09.372Z,6.00
2023-04-27T02:02:58.300Z,5.90
2023-04-27T02:05:25.300Z,5.90
2023-04-27T02:07:53.169Z,5.90
2023-04-27T02:10:22.134Z,5.70
2023-04-27T02:12:49.240Z,5.80
2023-04-27T02:15:16.559Z,5.80
2023-04-27T02:17:44.105Z,5.80
2023-04-27T02:20:12.875Z,5.70
2023-04-27T02:22:44.432Z,5.70
2023-04-27T02:25:12.656Z,5.40
2023-04-27T02:27:43.338Z,5.70
2023-04-27T02:30:11.806Z,5.70
2023-04-27T02:32:39.824Z,5.70
2023-04-27T02:35:07.769Z,5.60
2023-04-27T02:37:34.787Z,5.60
2023-04-27T02:40:02.087Z,5.70
2023-04-27T02:42:31.439Z,5.60
2023-04-27T02:44:58.191Z,5.60
2023-04-27T02:47:25.116Z,5.60
2023-04-27T02:49:51.906Z,5.60
2023-04-27T02:52:18.780Z,5.60
2023-04-27T02:54:45.718Z,5.60
2023-04-27T02:57:12.499Z,5.60
2023-04-27T02:59:39.415Z,5.50
2023-04-27T03:02:06.322Z,5.50
2023-04-27T03:04:33.212Z,5.50
2023-04-27T03:07:00.140Z,5.50
2023-04-27T03:09:26.946Z,5.50
2023-04-27T03:11:53.679Z,5.50
2023-04-27T03:14:20.757Z,5.50
2023-04-27T03:16:47.593Z,5.40
2023-04-27T03:19:14.835Z,5.50
2023-04-27T03:21:41.899Z,5.40
2023-04-27T03:24:09.243Z,5.40
2023-04-27T03:26:36.073Z,5.40
2023-04-27T03:29:04.272Z,5.40
2023-04-27T03:31:31.152Z,5.40
2023-04-27T03:33:58.311Z,5.30
2023-04-27T03:36:25.053Z,5.40
2023-04-27T03:38:51.817Z,5.30
2023-04-27T03:41:18.897Z,5.30
2023-04-27T03:43:45.850Z,5.30
2023-04-27T03:46:12.738Z,5.30
2023-04-27T03:48:40.582Z,5.30
2023-04-27T03:51:07.952Z,5.30
2023-04-27T03:53:34.955Z,5.30
2023-04-27T03:56:02.319Z,5.20
2023-04-27T03:58:29.259Z,5.30
2023-04-27T04:01:16.618Z,5.30
2023-04-27T04:03:43.915Z,5.30
2023-04-27T04:06:12.068Z,5.30
2023-04-27T04:08:39.413Z,5.30
2023-04-27T04:11:06.140Z,5.30
2023-04-27T04:13:35.960Z,5.30
2023-04-27T04:16:07.074Z,5.20
2023-04-27T04:18:35.220Z,5.20
2023-04-27T04:21:02.634Z,5.20
2023-04-27T04:23:29.645Z,5.10
2023-04-27T04:25:56.616Z,5.10
2023-04-27T04:28:25.419Z,5.10
2023-04-27T04:30:52.609Z,5.10
2023-04-27T04:33:20.136Z,5.10
2023-04-27T04:35:47.076Z,5.20
2023-04-27T04:38:14.186Z,5.10
2023-04-27T04:40:44.475Z,5.20
2023-04-27T04:43:13.235Z,5.20
2023-04-27T04:45:40.184Z,5.20
2023-04-27T04:48:07.121Z,5.20
2023-04-27T04:50:35.899Z,5.20
2023-04-27T04:53:02.812Z,5.20
2023-04-27T04:55:29.857Z,5.30
2023-04-27T04:57:56.728Z,5.30
2023-04-27T05:00:23.680Z,5.30
2023-04-27T05:02:50.625Z,5.30
2023-04-27T05:05:17.792Z,5.30
2023-04-27T05:07:44.815Z,5.30
2023-04-27T05:10:11.811Z,5.30
2023-04-27T05:12:38.749Z,5.10
2023-04-27T05:15:06.166Z,5.30
2023-04-27T05:17:33.112Z,5.40
2023-04-27T05:20:00.381Z,5.40
2023-04-27T05:22:27.328Z,5.40
2023-04-27T05:24:54.214Z,5.50
2023-04-27T05:27:21.248Z,5.60
2023-04-27T05:29:48.134Z,5.60
2023-04-27T05:32:14.872Z,5.70
2023-04-27T05:34:43.668Z,5.80
2023-04-27T05:37:11.568Z,5.80
2023-04-27T05:39:39.117Z,5.90
2023-04-27T05:42:06.006Z,6.00
2023-04-27T05:44:32.905Z,6.10
2023-04-27T05:46:59.748Z,6.20
2023-04-27T05:49:26.695Z,6.30
2023-04-27T05:51:53.616Z,6.30
2023-04-27T05:54:20.687Z,6.40
2023-04-27T05:56:47.523Z,6.30
2023-04-27T05:59:14.573Z,6.40
2023-04-27T06:01:41.674Z,6.60
2023-04-27T06:04:08.797Z,6.70
2023-04-27T06:06:35.792Z,6.90
2023-04-27T06:09:02.689Z,7.00
2023-04-27T06:11:29.441Z,7.20
2023-04-27T06:13:56.369Z,7.30
2023-04-27T06:16:23.656Z,7.20
2023-04-27T06:18:50.816Z,7.40
2023-04-27T06:21:17.941Z,7.50
2023-04-27T06:23:44.839Z,7.60
2023-04-27T06:26:11.742Z,7.60
2023-04-27T06:28:39.209Z,7.70
2023-04-27T06:31:06.714Z,7.70
2023-04-27T06:33:33.827Z,7.90
2023-04-27T06:36:01.870Z,8.00
2023-04-27T06:38:28.833Z,8.10
2023-04-27T06:40:55.766Z,8.20
2023-04-27T06:43:23.154Z,8.30
2023-04-27T06:45:50.159Z,8.30
2023-04-27T06:48:17.353Z,8.50
2023-04-27T06:50:44.329Z,8.50
2023-04-27T06:53:11.254Z,8.60
2023-04-27T06:55:38.170Z,8.60
2023-04-27T06:58:05.167Z,8.70
2023-04-27T07:00:32.259Z,8.90
2023-04-27T07:02:59.269Z,9.20
2023-04-27T07:05:26.310Z,9.30
2023-04-27T07:07:54.190Z,9.50
2023-04-27T07:10:21.398Z,9.50
2023-04-27T07:12:48.284Z,9.60
2023-04-27T07:15:15.266Z,9.60
2023-04-27T07:17:42.263Z,9.70
2023-04-27T07:20:09.294Z,9.70
2023-04-27T07:22:36.393Z,9.60
2023-04-27T07:25:04.248Z,9.60
2023-04-27T07:27:31.866Z,9.60
2023-04-27T07:29:59.163Z,9.70
2023-04-27T07:32:26.238Z,9.90
2023-04-27T07:34:55.797Z,10.10
2023-04-27T07:37:23.190Z,10.30
2023-04-27T07:39:54.402Z,10.50
2023-04-27T07:42:25.059Z,10.50
2023-04-27T07:44:52.606Z,10.60
2023-04-27T07:47:19.622Z,10.70
2023-04-27T07:49:47.108Z,10.80
2023-04-27T07:52:14.453Z,11.10
2023-04-27T07:54:43.151Z,11.30
2023-04-27T07:57:11.671Z,11.70
2023-04-27T07:59:39.257Z,11.80
2023-04-27T08:02:18.291Z,12.10
2023-04-27T08:04:47.299Z,11.90
2023-04-27T08:07:16.488Z,11.90
2023-04-27T08:09:43.362Z,12.00
2023-04-27T08:12:10.641Z,11.80
2023-04-27T08:14:37.636Z,11.90
2023-04-27T08:17:04.581Z,12.10
2023-04-27T08:19:31.569Z,12.10
2023-04-27T08:21:58.322Z,12.20
2023-04-27T08:24:25.343Z,12.40
2023-04-27T08:26:52.171Z,12.70
2023-04-27T08:29:27.212Z,12.90
2023-04-27T08:31:59.018Z,13.00
2023-04-27T08:34:26.306Z,13.10
2023-04-27T08:36:54.119Z,13.20
2023-04-27T08:39:21.681Z,13.30
2023-04-27T08:41:48.425Z,13.40
2023-04-27T08:44:16.059Z,13.60
2023-04-27T08:46:43.002Z,13.60
2023-04-27T08:49:10.082Z,13.80
2023-04-27T08:51:36.962Z,13.80
2023-04-27T08:54:04.109Z,13.50
2023-04-27T08:56:31.204Z,13.70
2023-04-27T08:58:59.090Z,13.60
2023-04-27T09:01:27.382Z,13.40
2023-04-27T09:04:00.611Z,13.20
2023-04-27T09:06:32.895Z,13.50
2023-04-27T09:09:00.555Z,13.40
2023-04-27T09:11:38.583Z,13.30
2023-04-27T09:14:18.761Z,13.40
2023-04-27T09:16:45.964Z,13.40
2023-04-27T09:19:23.250Z,13.60
2023-04-27T09:21:51.577Z,13.70
2023-04-27T09:24:18.398Z,13.80
2023-04-27T09:26:50.002Z,13.80
2023-04-27T09:29:17.434Z,14.00
2023-04-27T09:31:44.310Z,14.00
2023-04-27T09:34:11.268Z,13.90
2023-04-27T09:36:39.962Z,14.10
2023-04-27T09:39:07.027Z,14.20
2023-04-27T09:41:34.299Z,14.20
2023-04-27T09:44:01.918Z,14.10
2023-04-27T09:46:29.719Z,14.10
2023-04-27T09:48:57.543Z,14.00
2023-04-27T09:51:24.444Z,14.00
2023-04-27T09:53:57.793Z,14.10
2023-04-27T09:56:51.829Z,14.40
2023-04-27T09:59:37.129Z,14.40
2023-04-27T10:02:20.890Z,14.50
2023-04-27T10:05:10.224Z,14.60
2023-04-27T10:07:41.629Z,14.90
2023-04-27T10:10:17.616Z,14.80
2023-04-27T10:12:55.289Z,14.90
2023-04-27T10:15:26.987Z,15.00
2023-04-27T10:17:55.197Z,14.70
2023-04-27T10:20:33.020Z,14.90
2023-04-27T10:23:00.812Z,14.80
2023-04-27T10:25:40.652Z,15.20
2023-04-27T10:28:10.650Z,15.30
2023-04-27T10:30:39.329Z,15.20
2023-04-27T10:33:08.580Z,15.20
2023-04-27T10:35:53.755Z,15.20
2023-04-27T10:38:26.872Z,15.40
2023-04-27T10:41:01.390Z,15.60
2023-04-27T10:43:30.620Z,15.40
2023-04-27T10:46:14.701Z,15.20
2023-04-27T10:48:43.361Z,15.20
2023-04-27T10:51:10.770Z,15.20
2023-04-27T10:53:37.973Z,15.30
2023-04-27T10:56:06.950Z,15.10
2023-04-27T11:01:09.100Z,15.40
2023-04-27T11:03:36.337Z,15.80
2023-04-27T11:06:05.379Z,16.10
2023-04-27T11:08:36.621Z,15.80
2023-04-27T11:11:04.971Z,15.80
2023-04-27T11:13:33.371Z,15.70
2023-04-27T11:16:00.605Z,15.90
2023-04-27T11:18:33.152Z,15.90
2023-04-27T11:21:26.296Z,16.10
2023-04-27T11:23:53.577Z,16.40
2023-04-27T11:26:22.023Z,16.20
2023-04-27T11:28:59.694Z,16.20
2023-04-27T11:31:27.476Z,16.20
2023-04-27T11:33:56.090Z,16.30
2023-04-27T11:36:27.806Z,16.30
2023-04-27T11:38:59.286Z,16.50
2023-04-27T11:41:37.004Z,16.80
2023-04-27T11:44:09.034Z,16.80
2023-04-27T11:46:37.884Z,16.80
2023-04-27T11:49:06.430Z,16.70
2023-04-27T11:51:33.527Z,16.60
2023-04-27T11:54:07.762Z,16.30
2023-04-27T11:56:39.779Z,16.50
2023-04-27T11:59:17.326Z,16.50
2023-04-27T12:01:44.281Z,16.50
2023-04-27T12:04:11.324Z,16.20
2023-04-27T12:06:38.946Z,16.20
2023-04-27T12:09:05.844Z,16.20
2023-04-27T12:11:33.234Z,16.40
2023-04-27T12:14:00.134Z,16.40
2023-04-27T12:16:27.459Z,16.30
2023-04-27T12:18:54.802Z,16.40
2023-04-27T12:21:22.190Z,16.40
2023-04-27T12:23:49.363Z,16.10
2023-04-27T12:26:17.310Z,16.20
2023-04-27T12:28:45.156Z,16.20
2023-04-27T12:31:16.446Z,16.40
2023-04-27T12:33:43.393Z,16.30
2023-04-27T12:36:10.475Z,16.40
2023-04-27T12:38:37.522Z,16.40
2023-04-27T12:41:04.836Z,16.50
2023-04-27T12:43:32.008Z,16.60
2023-04-27T12:45:58.891Z,16.60
2023-04-27T12:48:26.294Z,16.50
2023-04-27T12:50:53.276Z,16.70
2023-04-27T12:53:21.673Z,16.80
2023-04-27T12:55:48.904Z,17.00
2023-04-27T12:58:15.934Z,17.10
2023-04-27T13:00:42.816Z,17.50
2023-04-27T13:03:10.123Z,17.80
2023-04-27T13:05:37.221Z,17.80
2023-04-27T13:08:05.531Z,18.00
2023-04-27T13:10:32.526Z,18.10
2023-04-27T13:12:59.964Z,18.10
2023-04-27T13:15:26.805Z,17.90
2023-04-27T13:17:54.343Z,17.90
2023-04-27T13:20:21.343Z,18.00
2023-04-27T13:22:48.235Z,18.00
2023-04-27T13:25:16.584Z,18.00
2023-04-27T13:27:43.600Z,18.10
2023-04-27T13:30:10.637Z,18.30
2023-04-27T13:32:37.597Z,18.60
2023-04-27T13:35:05.430Z,19.00
2023-04-27T13:37:32.386Z,19.40
2023-04-27T13:39:59.237Z,19.20
2023-04-27T13:42:29.328Z,18.80
2023-04-27T13:44:57.015Z,18.30
2023-04-27T13:47:23.902Z,18.00
2023-04-27T13:49:50.760Z,18.30
2023-04-27T13:52:17.572Z,18.50
2023-04-27T13:54:44.381Z,18.60
2023-04-27T13:57:11.271Z,18.80
2023-04-27T13:59:38.120Z,18.80
2023-04-27T14:02:04.956Z,19.20
2023-04-27T14:04:31.988Z,19.40
2023-04-27T14:06:59.026Z,19.30
2023-04-27T14:09:27.003Z,19.30
2023-04-27T14:11:57.018Z,19.40
2023-04-27T14:14:24.772Z,19.90
2023-04-27T14:16:53.320Z,20.40
2023-04-27T14:19:20.701Z,20.40
2023-04-27T14:21:49.517Z,21.00
2023-04-27T14:24:16.394Z,21.90
2023-04-27T14:26:44.134Z,22.70
2023-04-27T14:29:11.842Z,23.00
2023-04-27T14:31:39.711Z,23.30
2023-04-27T14:34:07.755Z,22.30
2023-04-27T14:36:35.090Z,21.10
2023-04-27T14:39:01.950Z,20.30
2023-04-27T14:41:28.900Z,19.70
2023-04-27T14:43:55.908Z,19.00
2023-04-27T14:46:23.121Z,19.00
2023-04-27T14:48:51.243Z,19.00
2023-04-27T14:51:18.515Z,19.00
2023-04-27T14:53:45.353Z,19.00
2023-04-27T14:56:12.434Z,18.50
2023-04-27T14:58:39.390Z,17.90
2023-04-27T15:01:07.410Z,17.70
2023-04-27T15:03:34.798Z,17.60
2023-04-27T15:06:02.404Z,17.60
2023-04-27T15:08:31.218Z,17.60
2023-04-27T15:11:00.087Z,18.00
2023-04-27T15:13:27.490Z,18.30
2023-04-27T15:15:56.027Z,18.70
2023-04-27T15:18:23.811Z,19.50
2023-04-27T15:20:57.691Z,19.90
2023-04-27T15:23:25.887Z,20.60
2023-04-27T15:25:56.120Z,21.00
2023-04-27T15:28:23.421Z,21.00
2023-04-27T15:30:50.763Z,21.30
2023-04-27T15:33:17.931Z,21.50
2023-04-27T15:35:44.832Z,21.20
2023-04-27T15:38:12.966Z,20.90
2023-04-27T15:40:40.114Z,20.90
2023-04-27T15:43:07.069Z,20.40
2023-04-27T15:45:34.330Z,20.00
2023-04-27T15:48:01.455Z,19.80
2023-04-27T15:50:28.622Z,19.30
2023-04-27T15:52:55.624Z,18.80
2023-04-27T15:55:22.727Z,18.50
2023-04-27T15:57:50.349Z,18.20
2023-04-27T16:00:18.857Z,17.90
2023-04-27T16:02:46.901Z,17.70
2023-04-27T16:05:14.562Z,17.30
2023-04-27T16:07:43.310Z,17.10
2023-04-27T16:10:11.380Z,17.00
2023-04-27T16:12:38.697Z,16.90
2023-04-27T16:15:08.531Z,16.90
2023-04-27T16:17:37.148Z,16.70
2023-04-27T16:20:08.447Z,16.60
2023-04-27T16:22:36.231Z,16.60
2023-04-27T16:25:04.333Z,16.60
2023-04-27T16:27:31.562Z,16.50
2023-04-27T16:29:58.558Z,16.60
2023-04-27T16:32:26.741Z,16.40
2023-04-27T16:34:53.807Z,16.30
2023-04-27T16:37:20.768Z,16.20
2023-04-27T16:39:47.628Z,16.20
2023-04-27T16:42:19.720Z,16.20
2023-04-27T16:44:46.875Z,16.10
2023-04-27T16:47:13.646Z,16.00
2023-04-27T16:49:42.391Z,16.00
2023-04-27T16:52:09.481Z,16.00
2023-04-27T16:54:36.352Z,16.10
2023-04-27T16:57:04.121Z,16.10
2023-04-27T16:59:31.154Z,16.00
2023-04-27T17:02:01.729Z,16.00
2023-04-27T17:04:39.968Z,15.90
2023-04-27T17:07:09.014Z,15.70
2023-04-27T17:09:38.751Z,15.70
2023-04-27T17:12:10.947Z,15.60
2023-04-27T17:14:38.565Z,15.50
2023-04-27T17:17:06.222Z,15.50
2023-04-27T17:19:33.150Z,15.50
2023-04-27T17:22:00.275Z,15.60
2023-04-27T17:24:27.147Z,15.50
2023-04-27T17:26:54.024Z,15.50
2023-04-27T17:29:21.615Z,15.50
2023-04-27T17:31:50.042Z,15.50
2023-04-27T17:34:17.190Z,15.50
2023-04-27T17:36:44.087Z,15.50
2023-04-27T17:39:12.808Z,15.50
2023-04-27T17:41:40.097Z,15.50
2023-04-27T17:44:07.009Z,15.60
2023-04-27T17:46:33.894Z,15.60
2023-04-27T17:49:00.906Z,15.50
2023-04-27T17:51:27.883Z,15.50
2023-04-27T17:53:54.709Z,15.50
2023-04-27T17:56:21.780Z,15.50
2023-04-27T17:58:48.614Z,15.40
2023-04-27T18:01:15.731Z,15.30
2023-04-27T18:03:42.762Z,15.20
2023-04-27T18:06:09.773Z,15.20
2023-04-27T18:08:36.562Z,15.10
2023-04-27T18:11:03.416Z,15.00
2023-04-27T18:13:32.360Z,14.90
2023-04-27T18:15:59.414Z,14.90
2023-04-27T18:18:26.811Z,14.80
2023-04-27T18:20:53.769Z,14.80
2023-04-27T18:23:20.946Z,14.70
2023-04-27T18:25:47.756Z,14.70
2023-04-27T18:28:14.968Z,14.60
2023-04-27T18:30:42.105Z,14.60
2023-04-27T18:33:09.013Z,14.60
2023-04-27T18:35:37.953Z,14.60
2023-04-27T18:38:06.101Z,14.60
2023-04-27T18:40:33.582Z,14.50
2023-04-27T18:43:00.565Z,14.40
2023-04-27T18:45:27.645Z,14.40
2023-04-27T18:47:54.605Z,14.40
2023-04-27T18:50:21.347Z,14.40
2023-04-27T18:52:48.195Z,14.40
2023-04-27T18:55:16.624Z,14.30
2023-04-27T18:57:45.315Z,14.30
2023-04-27T19:00:13.020Z,14.30
2023-04-27T19:02:40.326Z,14.20
2023-04-27T19:05:12.919Z,14.20
2023-04-27T19:07:40.589Z,14.20
2023-04-27T19:10:08.165Z,14.30
2023-04-27T19:12:35.027Z,14.20
2023-04-27T19:15:01.909Z,14.10
2023-04-27T19:17:29.071Z,14.00
2023-04-27T19:19:55.982Z,14.10
2023-04-27T19:22:22.981Z,14.10
2023-04-27T19:24:49.845Z,13.90
2023-04-27T19:27:16.668Z,13.90
2023-04-27T19:29:55.771Z,13.90
2023-04-27T19:32:27.535Z,13.90
2023-04-27T19:34:56.197Z,13.90
2023-04-27T19:37:23.878Z,13.90
2023-04-27T19:39:51.130Z,13.80
2023-04-27T19:42:18.120Z,13.80
2023-04-27T19:44:45.076Z,13.70
2023-04-27T19:47:13.352Z,13.80
2023-04-27T19:49:40.245Z,13.80
2023-04-27T19:52:07.419Z,13.70
2023-04-27T19:54:35.935Z,13.60
2023-04-27T19:57:03.857Z,13.60
2023-04-27T19:59:30.788Z,13.50
2023-04-27T20:01:57.888Z,13.50
2023-04-27T20:04:25.298Z,13.50
2023-04-27T20:06:52.942Z,13.50
2023-04-27T20:09:19.842Z,13.40
2023-04-27T20:11:46.632Z,13.40
2023-04-27T20:14:13.750Z,13.40
2023-04-27T20:16:40.898Z,13.30
2023-04-27T20:19:07.868Z,13.30
2023-04-27T20:21:34.717Z,13.30
2023-04-27T20:24:01.618Z,13.30
2023-04-27T20:26:28.526Z,13.30
2023-04-27T20:28:55.553Z,13.30
2023-04-27T20:31:22.447Z,13.20
2023-04-27T20:33:49.382Z,13.20
2023-04-27T20:36:18.357Z,13.10
2023-04-27T20:38:46.292Z,13.10
2023-04-27T20:41:13.541Z,13.10
2023-04-27T20:43:40.739Z,13.10
2023-04-27T20:46:10.111Z,13.10
2023-04-27T20:48:39.846Z,13.10
2023-04-27T20:51:06.801Z,13.00
2023-04-27T20:53:33.665Z,13.00
2023-04-27T20:56:00.532Z,12.90
2023-04-27T20:58:28.529Z,13.00
2023-04-27T21:00:55.504Z,12.90
2023-04-27T21:03:22.490Z,12.90
2023-04-27T21:05:49.396Z,12.90
2023-04-27T21:08:19.572Z,12.90
2023-04-27T21:10:47.042Z,12.90
2023-04-27T21:13:13.948Z,12.90
2023-04-27T21:15:40.950Z,12.90
2023-04-27T21:18:13.473Z,12.80
2023-04-27T21:20:46.076Z,12.80
2023-04-27T21:23:14.685Z,12.80
2023-04-27T21:25:44.929Z,12.80
2023-04-27T21:28:12.468Z,12.80
2023-04-27T21:30:39.562Z,12.80
2023-04-27T21:33:07.300Z,12.80
2023-04-27T21:35:34.278Z,12.80
2023-04-27T21:38:01.175Z,12.80
2023-04-27T21:40:28.060Z,12.70
2023-04-27T21:42:55.198Z,12.70
2023-04-27T21:45:22.142Z,12.60
2023-04-27T21:47:49.254Z,12.50
2023-04-27T21:50:16.815Z,12.50
2023-04-27T21:52:43.869Z,12.50
2023-04-27T21:55:11.048Z,12.40
2023-04-27T21:57:37.932Z,12.40
2023-04-27T22:00:13.267Z,12.40
2023-04-27T22:02:46.111Z,12.40
2023-04-27T22:05:13.992Z,12.30
2023-04-27T22:07:41.327Z,12.30
2023-04-27T22:10:08.784Z,12.30
2023-04-27T22:12:35.569Z,12.30
2023-04-27T22:15:02.477Z,12.30
2023-04-27T22:17:29.309Z,12.30
2023-04-27T22:19:56.773Z,12.20
2023-04-27T22:22:23.561Z,12.20
2023-04-27T22:24:50.421Z,12.10
2023-04-27T22:27:17.412Z,12.00
2023-04-27T22:29:44.399Z,11.90
2023-04-27T22:32:11.273Z,11.90
2023-04-27T22:34:38.371Z,11.70
2023-04-27T22:37:05.368Z,11.80
2023-04-27T22:39:32.380Z,11.80
2023-04-27T22:41:59.189Z,11.90
2023-04-27T22:44:26.185Z,11.90
2023-04-27T22:46:53.078Z,11.90
2023-04-27T22:49:19.813Z,12.00
2023-04-27T22:51:47.042Z,12.00
2023-04-27T22:54:15.308Z,12.00
2023-04-27T22:56:42.302Z,11.90
2023-04-27T22:59:09.269Z,11.80
2023-04-27T23:01:36.168Z,11.80
2023-04-27T23:04:03.126Z,11.80
2023-04-27T23:06:30.322Z,11.70
2023-04-27T23:08:57.157Z,11.60
2023-04-27T23:11:23.939Z,11.70
2023-04-27T23:13:50.776Z,11.60
2023-04-27T23:16:17.667Z,11.60
2023-04-27T23:18:44.636Z,11.50
2023-04-27T23:21:11.712Z,11.50
2023-04-27T23:23:38.791Z,11.50
2023-04-27T23:26:13.180Z,11.50
2023-04-27T23:28:40.957Z,11.60
2023-04-27T23:31:08.072Z,11.50
2023-04-27T23:33:35.076Z,11.50
2023-04-27T23:36:02.160Z,11.50
2023-04-27T23:38:29.267Z,11.70
2023-04-27T23:40:56.137Z,11.50
2023-04-27T23:43:22.992Z,11.50
2023-04-27T23:45:51.276Z,11.40
2023-04-27T23:48:19.016Z,11.40
2023-04-27T23:50:46.186Z,11.30
2023-04-27T23:53:13.019Z,11.40
2023-04-27T23:55:39.903Z,11.30
2023-04-27T23:58:06.812Z,11.20
